Time;durP1;ratioP1;P1;durP2;ratioP2;P2;SDS_P1;SDS_P2;PMS_P1;PMS_P2;Temp;Humidity;BMP_temperature;BMP_pressure;BME280_temperature;BME280_humidity;BME280_pressure;Samples;Min_cycle;Max_cycle;Signal;HPM_P1;HPM_P2
2021/01/05 00:02:14;;;;;;;30.17;13.00;;;-0.40;97.70;;;;;;6251425;22;20008;-83
2021/01/05 00:04:39;;;;;;;27.98;12.85;;;-0.30;97.40;;;;;;6224630;23;20004;-82
2021/01/05 00:07:08;;;;;;;30.25;14.13;;;-0.30;97.20;;;;;;6224278;23;20000;-82
2021/01/05 00:09:34;;;;;;;26.13;12.95;;;-0.30;97.10;;;;;;6226206;23;20408;-83
2021/01/05 00:12:02;;;;;;;31.42;15.48;;;-0.40;97.20;;;;;;6226884;23;20083;-83
2021/01/05 00:14:29;;;;;;;27.90;13.35;;;-0.40;97.20;;;;;;6253531;23;20088;-82
2021/01/05 00:16:55;;;;;;;29.88;13.25;;;-0.40;97.40;;;;;;6226632;23;20000;-83
2021/01/05 00:19:22;;;;;;;29.67;14.43;;;-0.40;97.40;;;;;;6227380;23;20015;-83
2021/01/05 00:21:49;;;;;;;28.40;15.25;;;-0.50;97.50;;;;;;6251409;22;20435;-84
2021/01/05 00:24:14;;;;;;;30.58;15.68;;;-0.50;97.80;;;;;;6255139;23;20004;-84
2021/01/05 00:26:40;;;;;;;26.88;12.90;;;-0.40;97.50;;;;;;6227565;23;20064;-83
2021/01/05 00:29:06;;;;;;;29.50;13.23;;;-0.50;97.70;;;;;;6227019;23;20003;-83
2021/01/05 00:31:32;;;;;;;37.15;16.65;;;-0.40;97.70;;;;;;6228673;23;20064;-83
2021/01/05 00:33:58;;;;;;;29.48;14.93;;;-0.50;97.30;;;;;;6226933;23;20010;-83
2021/01/05 00:36:24;;;;;;;23.00;11.80;;;-0.60;97.30;;;;;;6225792;23;20004;-84
2021/01/05 00:38:49;;;;;;;31.45;14.88;;;-0.60;97.90;;;;;;6252814;23;19996;-84
2021/01/05 00:41:15;;;;;;;29.02;13.48;;;-0.60;98.00;;;;;;6225389;22;20012;-84
2021/01/05 00:43:42;;;;;;;29.33;14.32;;;-0.50;97.90;;;;;;6252952;23;20001;-84
2021/01/05 00:46:10;;;;;;;32.28;14.95;;;-0.50;97.90;;;;;;6226848;23;20000;-84
2021/01/05 00:48:36;;;;;;;33.55;14.45;;;-0.50;98.00;;;;;;6226255;23;20001;-84
2021/01/05 00:51:02;;;;;;;31.52;14.60;;;-0.50;97.70;;;;;;6226521;22;20008;-83
2021/01/05 00:53:28;;;;;;;27.67;13.82;;;-0.50;97.80;;;;;;6227939;23;20004;-83
2021/01/05 00:55:53;;;;;;;32.42;15.82;;;-0.50;98.00;;;;;;6226530;23;20008;-84
2021/01/05 00:58:23;;;;;;;26.70;12.75;;;-0.50;97.70;;;;;;6226789;23;20004;-83
2021/01/05 01:00:52;;;;;;;36.70;16.48;;;-0.40;97.70;;;;;;6254619;23;20031;-83
2021/01/05 01:03:19;;;;;;;34.13;14.95;;;-0.50;97.10;;;;;;6253080;22;19996;-83
2021/01/05 01:05:45;;;;;;;30.80;14.00;;;-0.50;97.30;;;;;;6253212;23;19996;-84
2021/01/05 01:08:11;;;;;;;26.73;12.85;;;-0.50;97.30;;;;;;6226820;23;20014;-83
2021/01/05 01:10:38;;;;;;;30.65;15.40;;;-0.50;97.40;;;;;;6226009;23;20011;-83
2021/01/05 01:13:04;;;;;;;25.88;13.57;;;-0.50;97.40;;;;;;6226643;23;20023;-84
2021/01/05 01:15:30;;;;;;;31.73;13.50;;;-0.40;97.30;;;;;;6253782;23;20008;-83
2021/01/05 01:17:55;;;;;;;33.20;14.57;;;-0.40;97.10;;;;;;6225885;23;20015;-83
2021/01/05 01:20:21;;;;;;;36.15;17.40;;;-0.40;97.10;;;;;;6226559;23;20027;-84
2021/01/05 01:22:47;;;;;;;34.22;14.80;;;-0.40;96.90;;;;;;6226614;23;20008;-83
2021/01/05 01:25:13;;;;;;;35.78;16.13;;;-0.50;97.10;;;;;;6226717;23;20030;-83
2021/01/05 01:27:39;;;;;;;43.55;18.05;;;-0.50;96.90;;;;;;6228298;23;20011;-84
2021/01/05 01:30:05;;;;;;;39.67;17.23;;;-0.60;97.40;;;;;;6255213;23;20001;-84
2021/01/05 01:32:31;;;;;;;35.45;15.00;;;-0.60;97.80;;;;;;6230246;23;20018;-84
2021/01/05 01:34:57;;;;;;;39.25;17.10;;;-0.60;97.90;;;;;;6262800;23;20000;-84
2021/01/05 01:37:22;;;;;;;38.58;16.77;;;-0.50;97.70;;;;;;6234729;23;20012;-83
2021/01/05 01:39:48;;;;;;;35.05;15.55;;;-0.50;97.50;;;;;;6225302;23;20467;-83
2021/01/05 01:42:17;;;;;;;43.15;17.48;;;-0.50;97.50;;;;;;6230200;23;20082;-84
2021/01/05 01:44:43;;;;;;;42.28;16.98;;;-0.40;97.40;;;;;;6260646;23;20073;-85
2021/01/05 01:47:24;;;;;;;36.47;17.13;;;-0.40;97.40;;;;;;6243745;23;20010;-84
2021/01/05 01:49:57;;;;;;;39.30;17.35;;;-0.50;97.10;;;;;;6262113;23;20020;-82
2021/01/05 01:52:35;;;;;;;33.53;15.20;;;-0.50;97.10;;;;;;6252590;22;20000;-83
2021/01/05 01:55:07;;;;;;;43.47;19.27;;;-0.50;97.20;;;;;;6224744;23;20356;-82
2021/01/05 01:57:32;;;;;;;37.50;16.10;;;-0.50;97.00;;;;;;6225699;23;20026;-82
2021/01/05 02:00:26;;;;;;;33.75;15.30;;;-0.50;96.80;;;;;;6251088;23;19997;-81
2021/01/05 02:03:16;;;;;;;40.90;15.57;;;-0.50;97.00;;;;;;6225570;23;20010;-83
2021/01/05 02:06:03;;;;;;;41.95;18.13;;;-0.50;97.20;;;;;;6251586;23;19997;-82
2021/01/05 02:09:01;;;;;;;35.92;16.15;;;-0.50;96.80;;;;;;6253183;23;19996;-83
2021/01/05 02:11:53;;;;;;;28.92;12.98;;;-0.50;96.90;;;;;;6254501;22;20035;-83
2021/01/05 02:14:28;;;;;;;44.38;17.52;;;-0.50;97.00;;;;;;6253882;23;20436;-84
2021/01/05 02:16:56;;;;;;;35.63;15.68;;;-0.50;96.80;;;;;;6254624;23;20114;-83
2021/01/05 02:19:47;;;;;;;42.65;18.40;;;-0.50;96.90;;;;;;6230543;23;20459;-84
2021/01/05 02:22:30;;;;;;;37.55;16.08;;;-0.50;96.70;;;;;;6227038;23;20016;-82
2021/01/05 02:25:02;;;;;;;36.83;14.65;;;-0.50;96.70;;;;;;6226391;23;20058;-84
2021/01/05 02:27:28;;;;;;;34.60;15.17;;;-0.50;96.80;;;;;;6226685;23;20067;-84
2021/01/05 02:30:00;;;;;;;38.78;14.73;;;-0.50;96.80;;;;;;6255280;23;20336;-83
2021/01/05 02:33:05;;;;;;;36.78;15.77;;;-0.50;97.00;;;;;;6234482;23;19992;-84
2021/01/05 02:35:52;;;;;;;37.20;16.15;;;-0.50;97.00;;;;;;6221568;23;20011;-84
2021/01/05 02:38:48;;;;;;;42.58;17.00;;;-0.50;97.10;;;;;;6252709;23;19997;-83
2021/01/05 02:41:34;;;;;;;36.28;16.00;;;-0.50;96.90;;;;;;6251487;22;20012;-83
2021/01/05 02:44:27;;;;;;;32.85;14.23;;;-0.50;96.70;;;;;;6189851;23;20004;-83
2021/01/05 02:46:59;;;;;;;;;;;-0.50;96.90;;;;;;6226383;23;20000;-82
2021/01/05 02:49:44;;;;;;;35.90;15.73;;;-0.50;96.60;;;;;;6223622;23;20006;-83
2021/01/05 02:52:16;;;;;;;43.63;17.30;;;-0.60;96.70;;;;;;6224762;23;20460;-83
2021/01/05 02:55:03;;;;;;;43.47;16.63;;;-0.60;96.70;;;;;;6223535;23;20015;-82
2021/01/05 02:57:31;;;;;;;28.77;13.23;;;-0.70;96.40;;;;;;6223022;23;20073;-82
2021/01/05 03:00:24;;;;;;;34.83;16.38;;;-0.70;96.80;;;;;;6252799;23;20000;-82
2021/01/05 03:02:50;;;;;;;34.00;14.80;;;-0.70;96.70;;;;;;6232575;23;20014;-84
2021/01/05 03:05:15;;;;;;;35.78;14.60;;;-0.90;96.90;;;;;;6269839;22;20008;-83
2021/01/05 03:07:42;;;;;;;37.55;15.63;;;-0.80;97.30;;;;;;6243081;23;20038;-84
2021/01/05 03:10:50;;;;;;;40.78;17.75;;;-0.80;97.40;;;;;;6268638;22;19996;-81
2021/01/05 03:13:48;;;;;;;36.30;16.58;;;-0.80;97.30;;;;;;6253304;22;20000;-83
2021/01/05 03:16:29;;;;;;;32.70;14.68;;;-0.70;97.30;;;;;;6222316;23;20008;-83
2021/01/05 03:19:20;;;;;;;36.38;17.60;;;-0.70;97.30;;;;;;6250006;23;20072;-83
2021/01/05 03:21:51;;;;;;;32.85;13.82;;;-0.70;97.00;;;;;;6224201;23;20451;-82
2021/01/05 03:37:11;;;;;;;30.70;14.93;;;-0.70;97.10;;;;;;6247805;23;20020;-83
2021/01/05 03:39:36;;;;;;;32.10;13.77;;;-0.70;96.70;;;;;;6190332;23;20539;-83
2021/01/05 03:42:02;;;;;;;30.17;15.50;;;-0.70;96.70;;;;;;6235443;23;19997;-84
2021/01/05 03:44:28;;;;;;;30.55;14.50;;;-0.70;96.30;;;;;;6209613;23;20091;-84
2021/01/05 03:46:53;;;;;;;30.20;13.32;;;-0.80;96.70;;;;;;6221651;23;20005;-84
2021/01/05 03:57:05;;;;;;;28.77;13.63;;;-0.70;96.90;;;;;;6257651;22;20016;-82
2021/01/05 03:59:31;;;;;;;31.13;13.77;;;-0.70;96.80;;;;;;6259004;22;20011;-82
2021/01/05 04:01:56;;;;;;;31.02;13.70;;;-0.70;96.80;;;;;;6255137;23;20325;-83
2021/01/05 04:04:22;;;;;;;21.70;11.60;;;-0.70;96.70;;;;;;6227244;23;20091;-83
2021/01/05 04:06:47;;;;;;;26.92;13.02;;;-0.70;96.80;;;;;;6225092;23;20000;-83
2021/01/05 04:09:13;;;;;;;25.88;11.20;;;-0.70;96.80;;;;;;6253604;23;20000;-84
2021/01/05 04:11:39;;;;;;;28.00;12.85;;;-0.70;96.70;;;;;;6254010;23;20000;-82
2021/01/05 04:14:05;;;;;;;26.25;12.10;;;-0.70;96.60;;;;;;6253470;22;20023;-83
2021/01/05 04:16:32;;;;;;;29.40;13.13;;;-0.70;96.60;;;;;;6255101;23;20000;-82
2021/01/05 04:18:58;;;;;;;31.65;13.82;;;-0.70;96.50;;;;;;6255130;23;20024;-82
2021/01/05 04:21:24;;;;;;;28.60;13.32;;;-0.70;96.30;;;;;;6256237;23;20021;-83
2021/01/05 04:23:50;;;;;;;29.02;13.50;;;-0.80;96.50;;;;;;6255740;22;20000;-83
2021/01/05 04:26:15;;;;;;;32.80;15.75;;;-0.90;96.70;;;;;;6228781;23;20107;-82
2021/01/05 04:28:41;;;;;;;29.02;14.05;;;-0.90;96.90;;;;;;6227988;23;20364;-83
2021/01/05 04:31:06;;;;;;;33.20;15.93;;;-1.00;97.50;;;;;;6257318;23;20000;-83
2021/01/05 04:33:32;;;;;;;29.33;14.02;;;-1.00;97.60;;;;;;6229372;23;20008;-84
2021/01/05 04:35:58;;;;;;;27.83;12.75;;;-1.00;97.90;;;;;;6261897;22;19990;-83
2021/01/05 04:38:23;;;;;;;31.52;15.02;;;-1.00;97.90;;;;;;6272197;22;20019;-86
2021/01/05 04:40:51;;;;;;;27.42;13.07;;;-0.90;97.80;;;;;;6235490;23;20012;-82
2021/01/05 04:43:35;;;;;;;28.75;13.40;;;-0.80;97.70;;;;;;6255543;22;20423;-83
2021/01/05 04:46:27;;;;;;;29.30;13.75;;;-0.80;97.40;;;;;;6254225;23;20000;-83
2021/01/05 04:49:15;;;;;;;32.67;14.10;;;-0.80;97.20;;;;;;6227509;23;20000;-85
2021/01/05 04:51:55;;;;;;;27.00;12.77;;;-0.80;97.30;;;;;;6223547;22;20067;-85
2021/01/05 04:54:32;;;;;;;26.42;13.40;;;-0.70;97.20;;;;;;6268420;22;20087;-86
2021/01/05 04:57:22;;;;;;;24.13;13.40;;;-0.70;97.10;;;;;;6247859;22;20012;-85
2021/01/05 05:00:06;;;;;;;33.53;15.25;;;-0.70;96.90;;;;;;6229025;23;20016;-83
2021/01/05 05:03:14;;;;;;;35.38;17.40;;;-0.60;96.80;;;;;;6262765;22;20058;-81
2021/01/05 05:05:50;;;;;;;29.33;13.63;;;-0.60;96.90;;;;;;6190108;23;20008;-81
2021/01/05 05:08:37;;;;;;;28.90;12.63;;;-0.60;96.80;;;;;;6251241;23;20011;-81
2021/01/05 05:11:13;;;;;;;30.33;14.18;;;-0.60;96.80;;;;;;6253570;23;20042;-81
2021/01/05 05:14:00;;;;;;;30.80;15.45;;;-0.60;96.30;;;;;;6253090;22;20004;-82
2021/01/05 05:16:29;;;;;;;30.73;13.60;;;-0.60;96.20;;;;;;6225202;23;20012;-81
2021/01/05 05:19:15;;;;;;;28.20;12.88;;;-0.60;96.40;;;;;;6226815;23;20324;-83
2021/01/05 05:21:46;;;;;;;24.83;12.73;;;-0.60;96.30;;;;;;6253576;23;20054;-81
2021/01/05 05:24:31;;;;;;;27.98;12.80;;;-0.60;96.50;;;;;;6226216;23;20026;-83
2021/01/05 05:27:28;;;;;;;30.50;13.82;;;-0.60;96.50;;;;;;6226915;23;20403;-85
2021/01/05 05:30:05;;;;;;;33.28;15.40;;;-0.60;96.20;;;;;;6246303;23;20034;-83
2021/01/05 05:32:39;;;;;;;33.47;16.35;;;-0.60;95.80;;;;;;6223842;22;20321;-79
2021/01/05 05:35:04;;;;;;;26.50;12.68;;;-0.70;95.40;;;;;;6247482;22;20001;-78
2021/01/05 05:37:55;;;;;;;26.98;12.63;;;-0.70;95.90;;;;;;6221950;23;20034;-81
2021/01/05 05:40:30;;;;;;;27.60;13.10;;;-0.70;96.00;;;;;;6249897;23;20006;-79
2021/01/05 05:43:08;;;;;;;35.65;14.88;;;-0.70;95.90;;;;;;6247629;23;19996;-79
2021/01/05 05:46:08;;;;;;;28.33;12.70;;;-0.80;95.70;;;;;;6247018;22;20083;-80
2021/01/05 05:49:01;;;;;;;27.48;11.73;;;-0.80;96.30;;;;;;6156180;23;20044;-78
2021/01/05 05:51:40;;;;;;;27.95;12.63;;;-0.70;96.50;;;;;;6220994;23;20067;-80
2021/01/05 05:54:15;;;;;;;43.08;18.02;;;-0.60;96.20;;;;;;6248790;22;20045;-80
2021/01/05 05:57:11;;;;;;;36.33;16.42;;;-0.60;95.80;;;;;;6221146;23;20091;-81
2021/01/05 06:00:00;;;;;;;36.47;16.05;;;-0.60;95.40;;;;;;6237819;23;20369;-81
2021/01/05 06:02:27;;;;;;;36.83;15.40;;;-0.70;95.90;;;;;;6221772;22;20515;-79
2021/01/05 06:04:57;;;;;;;29.38;13.13;;;-0.60;95.80;;;;;;6248430;23;20023;-81
2021/01/05 06:07:23;;;;;;;32.17;14.60;;;-0.60;95.90;;;;;;6249062;23;20103;-80
2021/01/05 06:09:49;;;;;;;30.35;13.90;;;-0.60;95.60;;;;;;6249298;23;20092;-81
2021/01/05 06:12:14;;;;;;;30.45;15.52;;;-0.70;95.40;;;;;;6249168;23;20451;-80
2021/01/05 06:14:40;;;;;;;41.63;17.08;;;-0.70;95.40;;;;;;6221641;23;20038;-80
2021/01/05 06:17:05;;;;;;;32.15;14.77;;;-0.70;95.60;;;;;;6221378;23;20145;-81
2021/01/05 06:19:31;;;;;;;35.17;15.45;;;-0.70;95.90;;;;;;6248945;23;20068;-80
2021/01/05 06:21:57;;;;;;;34.33;15.73;;;-0.70;95.90;;;;;;6248763;23;20011;-79
2021/01/05 06:24:22;;;;;;;28.02;14.18;;;-0.70;95.90;;;;;;6248917;22;20001;-81
2021/01/05 06:26:48;;;;;;;39.38;16.67;;;-0.70;95.90;;;;;;6249940;23;19996;-81
2021/01/05 06:29:13;;;;;;;32.10;14.75;;;-0.70;95.60;;;;;;6249552;23;20004;-81
2021/01/05 06:31:39;;;;;;;32.72;16.13;;;-0.70;95.70;;;;;;6249111;23;20000;-81
2021/01/05 06:34:05;;;;;;;30.40;13.88;;;-0.70;95.70;;;;;;6221739;23;20015;-80
2021/01/05 06:36:30;;;;;;;31.50;13.57;;;-0.60;95.80;;;;;;6248676;23;20553;-79
2021/01/05 06:38:56;;;;;;;31.42;14.07;;;-0.70;95.50;;;;;;6248753;23;20061;-80
2021/01/05 06:41:22;;;;;;;33.75;14.90;;;-0.70;95.40;;;;;;6248289;23;20004;-80
2021/01/05 06:43:47;;;;;;;30.55;13.98;;;-0.60;95.60;;;;;;6248760;22;20000;-80
2021/01/05 06:46:13;;;;;;;27.08;12.30;;;-0.60;95.60;;;;;;6221802;23;20058;-79
2021/01/05 06:48:39;;;;;;;33.78;15.40;;;-0.60;95.60;;;;;;6221612;23;20050;-81
2021/01/05 06:51:07;;;;;;;29.23;12.73;;;-0.60;95.50;;;;;;6223684;23;20012;-81
2021/01/05 06:53:33;;;;;;;39.83;16.63;;;-0.60;95.40;;;;;;6222707;23;20015;-80
2021/01/05 06:55:59;;;;;;;36.58;18.10;;;-0.60;94.90;;;;;;6221734;23;20004;-80
2021/01/05 06:58:24;;;;;;;36.83;14.98;;;-0.70;95.10;;;;;;6250139;23;20011;-80
2021/01/05 07:00:50;;;;;;;33.03;14.93;;;-0.80;95.70;;;;;;6248032;23;20000;-78
2021/01/05 07:03:16;;;;;;;36.55;16.65;;;-0.80;95.80;;;;;;6220071;23;20003;-79
2021/01/05 07:05:41;;;;;;;33.40;14.65;;;-0.80;95.50;;;;;;6247359;23;20011;-78
2021/01/05 07:08:07;;;;;;;27.60;13.30;;;-0.70;95.70;;;;;;6247588;23;20015;-79
2021/01/05 07:10:32;;;;;;;30.20;13.93;;;-0.70;95.70;;;;;;6249315;23;20070;-77
2021/01/05 07:12:58;;;;;;;34.97;15.73;;;-0.70;95.70;;;;;;6228183;23;20010;-77
2021/01/05 07:15:24;;;;;;;40.33;16.77;;;-0.70;95.60;;;;;;6226122;23;20008;-79
2021/01/05 07:17:49;;;;;;;36.83;16.13;;;-0.70;95.20;;;;;;6248310;23;20011;-78
2021/01/05 07:20:16;;;;;;;36.65;15.73;;;-0.60;95.50;;;;;;6249294;23;20015;-79
2021/01/05 07:22:41;;;;;;;29.48;14.27;;;-0.60;95.10;;;;;;6221617;22;20004;-78
2021/01/05 07:25:11;;;;;;;35.47;15.73;;;-0.70;95.30;;;;;;6220520;23;20000;-78
2021/01/05 07:27:37;;;;;;;40.72;15.93;;;-0.70;95.10;;;;;;6246711;22;20507;-79
2021/01/05 07:30:05;;;;;;;29.15;13.68;;;-0.70;95.20;;;;;;6220710;23;20050;-80
2021/01/05 07:32:31;;;;;;;31.00;13.50;;;-0.60;95.40;;;;;;6247601;22;20004;-79
2021/01/05 07:34:56;;;;;;;37.33;16.77;;;-0.60;95.30;;;;;;6247283;23;20454;-80
2021/01/05 07:37:36;;;;;;;37.33;16.83;;;-0.60;94.80;;;;;;6221908;23;20007;-79
2021/01/05 07:40:04;;;;;;;29.55;13.95;;;-0.60;94.90;;;;;;6251150;23;20007;-78
2021/01/05 07:42:32;;;;;;;35.97;15.98;;;-0.60;95.00;;;;;;6225525;22;20416;-79
2021/01/05 07:44:59;;;;;;;38.78;16.02;;;-0.60;94.40;;;;;;6254390;23;19999;-80
2021/01/05 07:47:38;;;;;;;34.03;15.38;;;-0.60;94.60;;;;;;6251017;23;20028;-80
2021/01/05 07:50:07;;;;;;;37.42;16.60;;;-0.70;94.60;;;;;;6222042;23;20143;-81
2021/01/05 07:52:40;;;;;;;38.28;16.17;;;-0.60;95.10;;;;;;6224041;22;20293;-79
2021/01/05 07:55:10;;;;;;;38.50;16.88;;;-0.60;95.20;;;;;;6225145;23;20055;-80
2021/01/05 07:57:36;;;;;;;38.60;17.13;;;-0.60;95.10;;;;;;6253956;23;20008;-79
2021/01/05 08:00:03;;;;;;;45.85;19.40;;;-0.50;94.60;;;;;;6253593;23;19999;-81
2021/01/05 08:02:29;;;;;;;36.10;16.25;;;-0.50;94.40;;;;;;6248303;22;20077;-82
2021/01/05 08:04:54;;;;;;;37.28;16.70;;;-0.60;94.80;;;;;;6221403;23;20001;-82
2021/01/05 08:07:20;;;;;;;39.15;17.83;;;-0.50;95.00;;;;;;6247432;23;20008;-79
2021/01/05 08:09:46;;;;;;;38.83;16.77;;;-0.50;95.00;;;;;;6220126;23;20016;-80
2021/01/05 08:12:16;;;;;;;34.88;15.82;;;-0.40;94.70;;;;;;6220137;23;20087;-80
2021/01/05 08:14:42;;;;;;;39.17;16.48;;;-0.40;94.80;;;;;;6234181;23;20400;-80
2021/01/05 08:17:11;;;;;;;37.75;16.17;;;-0.30;94.70;;;;;;6246586;23;20027;-80
2021/01/05 08:19:41;;;;;;;37.03;16.20;;;-0.30;94.00;;;;;;6219612;23;20028;-77
2021/01/05 08:22:07;;;;;;;38.95;17.73;;;-0.40;94.30;;;;;;6245724;23;20004;-80
2021/01/05 08:24:33;;;;;;;42.70;16.10;;;-0.30;94.40;;;;;;6246063;22;20001;-78
2021/01/05 08:26:58;;;;;;;44.92;18.60;;;-0.30;94.50;;;;;;6219709;23;20018;-77
2021/01/05 08:29:24;;;;;;;45.25;18.42;;;-0.30;94.30;;;;;;6224141;23;20005;-78
2021/01/05 08:31:50;;;;;;;38.05;16.10;;;-0.30;94.50;;;;;;6222699;23;20285;-78
2021/01/05 08:34:16;;;;;;;37.92;14.75;;;-0.20;94.20;;;;;;6247126;22;20034;-78
2021/01/05 08:36:41;;;;;;;39.03;16.15;;;-0.20;94.20;;;;;;6248194;23;20004;-80
2021/01/05 08:39:11;;;;;;;42.92;16.83;;;-0.20;94.00;;;;;;6248021;23;20004;-79
2021/01/05 08:41:37;;;;;;;30.67;12.95;;;-0.10;93.90;;;;;;6221864;23;20107;-79
2021/01/05 08:44:03;;;;;;;34.95;14.13;;;-0.10;94.00;;;;;;6247803;22;20000;-79
2021/01/05 08:46:29;;;;;;;34.28;14.35;;;0.00;93.80;;;;;;6221509;23;20079;-80
2021/01/05 08:48:55;;;;;;;49.03;19.35;;;0.00;93.70;;;;;;6250533;23;20000;-81
2021/01/05 08:51:22;;;;;;;38.10;15.73;;;0.00;92.90;;;;;;6223273;23;20011;-80
2021/01/05 08:53:49;;;;;;;37.63;16.33;;;-0.10;93.40;;;;;;6221505;23;20052;-80
2021/01/05 08:56:27;;;;;;;35.97;15.10;;;-0.10;93.40;;;;;;6248833;23;20012;-81
2021/01/05 08:58:53;;;;;;;41.25;17.27;;;0.00;93.80;;;;;;6250258;23;20027;-81
2021/01/05 09:01:19;;;;;;;39.30;17.25;;;0.00;93.30;;;;;;6222684;23;20007;-80
2021/01/05 09:03:45;;;;;;;38.90;16.38;;;0.10;93.30;;;;;;6249943;22;20023;-81
2021/01/05 09:06:13;;;;;;;49.70;21.67;;;0.10;92.90;;;;;;6223097;23;20028;-81
2021/01/05 09:08:39;;;;;;;49.88;19.92;;;0.10;92.70;;;;;;6223247;23;20090;-80
2021/01/05 09:11:20;;;;;;;36.83;17.58;;;0.10;92.40;;;;;;6249717;23;20004;-80
2021/01/05 09:13:46;;;;;;;39.83;16.55;;;0.20;92.40;;;;;;6249425;22;20007;-81
2021/01/05 09:16:19;;;;;;;52.15;24.85;;;0.20;92.30;;;;;;6249410;23;20000;-81
2021/01/05 09:18:45;;;;;;;40.72;20.02;;;0.30;91.70;;;;;;6250321;23;20035;-81
2021/01/05 09:21:10;;;;;;;43.28;19.00;;;0.30;92.10;;;;;;6250397;23;20000;-79
2021/01/05 09:23:37;;;;;;;43.05;18.88;;;0.30;92.10;;;;;;6224503;23;20067;-80
2021/01/05 09:26:03;;;;;;;46.85;19.55;;;0.40;91.80;;;;;;6251933;23;19996;-80
2021/01/05 09:28:28;;;;;;;41.53;17.77;;;0.30;91.70;;;;;;6224479;23;20010;-81
2021/01/05 09:30:54;;;;;;;42.97;18.08;;;0.20;92.30;;;;;;6249869;23;20004;-81
2021/01/05 09:33:21;;;;;;;43.95;19.45;;;0.30;92.60;;;;;;6221990;23;20033;-81
2021/01/05 09:35:49;;;;;;;47.40;20.38;;;0.40;92.20;;;;;;6222717;23;20008;-80
2021/01/05 09:38:16;;;;;;;44.60;18.10;;;0.30;92.00;;;;;;6222878;23;20077;-80
2021/01/05 09:40:42;;;;;;;38.95;18.05;;;0.30;92.00;;;;;;6246180;22;20012;-79
2021/01/05 09:43:11;;;;;;;47.28;19.52;;;0.30;92.20;;;;;;6247881;22;20012;-80
2021/01/05 09:45:38;;;;;;;43.97;18.15;;;0.30;91.80;;;;;;6247765;23;20404;-81
2021/01/05 09:48:08;;;;;;;41.08;17.70;;;0.30;91.90;;;;;;6250179;23;20016;-80
2021/01/05 09:50:34;;;;;;;49.83;20.40;;;0.30;92.10;;;;;;6249635;23;20054;-80
2021/01/05 09:53:00;;;;;;;38.70;17.23;;;0.30;92.30;;;;;;6249509;22;20008;-80
2021/01/05 09:55:26;;;;;;;43.03;16.45;;;0.40;92.30;;;;;;6249744;23;20030;-79
2021/01/05 09:57:53;;;;;;;43.80;17.95;;;0.40;91.90;;;;;;6222307;23;20024;-85
2021/01/05 10:00:19;;;;;;;34.33;14.65;;;0.50;91.90;;;;;;6254548;23;20312;-84
2021/01/05 10:02:45;;;;;;;47.45;19.83;;;0.60;91.90;;;;;;6227785;23;20054;-85
2021/01/05 10:05:11;;;;;;;42.75;19.10;;;0.60;91.30;;;;;;6254294;23;19992;-85
2021/01/05 10:07:37;;;;;;;38.22;16.83;;;0.60;90.80;;;;;;6227624;23;20000;-84
2021/01/05 10:10:04;;;;;;;38.20;16.38;;;0.50;91.10;;;;;;6227694;23;20011;-84
2021/01/05 10:12:30;;;;;;;38.60;16.75;;;0.50;91.10;;;;;;6228152;23;20424;-84
2021/01/05 10:14:55;;;;;;;40.92;18.20;;;0.50;90.60;;;;;;6235440;23;20035;-85
2021/01/05 10:17:21;;;;;;;43.65;19.38;;;0.50;90.50;;;;;;6258533;22;20048;-84
2021/01/05 10:19:47;;;;;;;39.17;17.92;;;0.50;90.20;;;;;;6259242;23;20075;-83
2021/01/05 10:22:12;;;;;;;42.70;17.80;;;0.50;90.30;;;;;;6254568;23;20399;-82
2021/01/05 10:24:38;;;;;;;36.67;18.30;;;0.40;90.10;;;;;;6254191;23;20001;-85
2021/01/05 10:27:04;;;;;;;44.53;18.77;;;0.40;90.50;;;;;;6255239;22;20002;-81
2021/01/05 10:29:30;;;;;;;45.15;18.58;;;0.40;90.40;;;;;;6254081;23;20003;-84
2021/01/05 10:31:55;;;;;;;42.10;18.65;;;0.50;90.50;;;;;;6227165;23;20015;-85
2021/01/05 10:34:23;;;;;;;43.22;18.67;;;0.40;90.40;;;;;;6253563;23;20007;-83
2021/01/05 10:36:57;;;;;;;44.05;17.35;;;0.50;90.20;;;;;;6226739;23;20329;-82
2021/01/05 10:39:23;;;;;;;30.90;13.95;;;0.50;90.60;;;;;;6227246;23;20004;-85
2021/01/05 10:41:49;;;;;;;42.05;17.58;;;0.60;90.60;;;;;;6226620;23;20050;-82
2021/01/05 10:44:18;;;;;;;47.13;18.98;;;0.80;90.00;;;;;;6227515;23;20328;-82
2021/01/05 10:46:43;;;;;;;46.55;19.02;;;0.80;88.50;;;;;;6228028;23;20020;-85
2021/01/05 10:49:10;;;;;;;43.00;17.83;;;0.70;88.00;;;;;;6254260;23;20396;-82
2021/01/05 10:51:46;;;;;;;40.35;17.92;;;0.70;88.80;;;;;;6254216;23;20422;-84
2021/01/05 10:54:15;;;;;;;33.45;14.80;;;0.70;88.80;;;;;;6254275;23;20000;-81
2021/01/05 10:56:40;;;;;;;31.75;14.35;;;0.80;89.50;;;;;;6254255;22;20011;-84
2021/01/05 10:59:06;;;;;;;31.05;14.68;;;0.90;89.70;;;;;;6254988;23;20004;-84
2021/01/05 11:01:31;;;;;;;38.70;16.10;;;0.90;88.80;;;;;;6228729;23;20064;-83
2021/01/05 11:03:57;;;;;;;35.92;16.60;;;1.00;87.30;;;;;;6256229;23;20438;-84
2021/01/05 11:06:23;;;;;;;40.97;17.05;;;0.90;86.60;;;;;;6265141;22;20011;-83
2021/01/05 11:08:48;;;;;;;32.70;15.25;;;0.80;88.00;;;;;;6268077;23;19996;-83
2021/01/05 11:11:18;;;;;;;35.63;16.45;;;0.80;88.40;;;;;;6234161;23;20388;-84
2021/01/05 11:13:44;;;;;;;44.63;18.10;;;0.90;88.10;;;;;;6254075;23;19998;-83
2021/01/05 11:16:11;;;;;;;39.28;18.02;;;0.80;87.50;;;;;;6226250;22;20147;-84
2021/01/05 11:18:36;;;;;;;36.47;15.57;;;0.80;87.60;;;;;;6229182;23;20011;-84
2021/01/05 11:21:02;;;;;;;42.30;18.55;;;0.90;88.80;;;;;;6227956;23;20399;-82
2021/01/05 11:23:28;;;;;;;46.20;18.92;;;0.90;86.70;;;;;;6256140;23;20000;-82
2021/01/05 11:25:54;;;;;;;41.85;17.20;;;0.60;87.70;;;;;;6255095;23;19996;-81
2021/01/05 11:28:19;;;;;;;39.75;17.75;;;0.60;89.60;;;;;;6234236;23;20000;-80
2021/01/05 11:30:46;;;;;;;44.67;18.60;;;0.70;89.80;;;;;;6242740;23;20005;-79
2021/01/05 11:33:11;;;;;;;40.58;17.10;;;0.80;89.40;;;;;;6245225;23;20043;-79
2021/01/05 11:35:41;;;;;;;39.70;16.67;;;0.90;88.20;;;;;;6271663;23;20023;-81
2021/01/05 11:38:08;;;;;;;41.22;17.08;;;1.10;87.90;;;;;;6245391;23;20038;-79
2021/01/05 11:40:34;;;;;;;39.08;16.52;;;1.20;85.50;;;;;;6239453;23;20102;-84
2021/01/05 11:42:59;;;;;;;51.38;22.10;;;1.20;84.40;;;;;;6255305;23;20004;-84
2021/01/05 11:45:25;;;;;;;44.30;18.75;;;1.10;85.10;;;;;;6227692;23;20008;-83
2021/01/05 11:47:51;;;;;;;37.60;16.35;;;1.10;86.00;;;;;;6254463;22;20106;-82
2021/01/05 11:50:17;;;;;;;45.22;19.80;;;1.20;86.10;;;;;;6228154;23;20339;-84
2021/01/05 11:52:43;;;;;;;42.65;19.83;;;1.30;85.50;;;;;;6227159;23;20034;-83
2021/01/05 11:55:10;;;;;;;41.50;18.00;;;1.40;85.20;;;;;;6267493;23;20000;-78
2021/01/05 11:57:36;;;;;;;44.10;19.13;;;1.40;85.30;;;;;;6243758;23;20008;-84
2021/01/05 12:00:07;;;;;;;40.00;18.05;;;1.40;83.70;;;;;;6230632;23;20502;-84
2021/01/05 12:02:33;;;;;;;43.67;18.35;;;1.10;84.70;;;;;;6231608;23;20083;-82
2021/01/05 12:04:59;;;;;;;44.58;17.63;;;1.10;86.60;;;;;;6256474;23;20341;-84
2021/01/05 12:07:24;;;;;;;52.92;21.15;;;1.10;86.40;;;;;;6227327;23;20020;-84
2021/01/05 12:09:50;;;;;;;51.45;19.77;;;1.10;88.60;;;;;;6253000;23;20007;-82
2021/01/05 12:12:15;;;;;;;46.35;18.38;;;1.30;89.80;;;;;;6227824;23;20030;-83
2021/01/05 12:14:55;;;;;;;38.78;17.27;;;1.30;89.80;;;;;;6235088;23;20024;-79
2021/01/05 12:17:21;;;;;;;38.78;17.40;;;1.20;84.90;;;;;;6263693;22;20004;-82
2021/01/05 12:19:47;;;;;;;43.42;19.30;;;1.10;85.10;;;;;;6262407;23;20000;-82
2021/01/05 12:22:13;;;;;;;36.45;16.98;;;1.00;85.30;;;;;;6266584;23;20031;-80
2021/01/05 12:24:42;;;;;;;44.80;19.63;;;0.90;86.20;;;;;;6242175;23;20031;-80
2021/01/05 12:27:09;;;;;;;41.15;17.05;;;0.80;86.30;;;;;;6243487;23;19987;-80
2021/01/05 12:29:42;;;;;;;37.78;16.73;;;0.80;86.70;;;;;;6268987;23;20007;-84
2021/01/05 12:32:10;;;;;;;41.00;17.52;;;0.80;86.80;;;;;;6267289;23;19988;-83
2021/01/05 12:34:40;;;;;;;31.33;14.52;;;0.80;87.60;;;;;;6268025;23;20004;-79
2021/01/05 12:37:11;;;;;;;43.65;16.35;;;0.90;88.20;;;;;;6240224;23;20012;-82
2021/01/05 12:39:38;;;;;;;45.10;17.88;;;0.90;86.10;;;;;;6239097;23;20064;-84
2021/01/05 12:42:10;;;;;;;41.08;17.75;;;0.90;86.90;;;;;;6229439;23;20009;-81
2021/01/05 12:44:36;;;;;;;;;;;0.80;87.00;;;;;;6260977;23;19997;-83
2021/01/05 12:47:02;;;;;;;34.28;14.95;;;0.90;87.70;;;;;;6256329;22;19940;-82
2021/01/05 12:49:28;;;;;;;36.55;15.90;;;0.90;86.70;;;;;;6255566;23;20007;-84
2021/01/05 12:51:53;;;;;;;45.72;17.25;;;0.80;86.20;;;;;;6227683;23;20027;-84
2021/01/05 12:54:20;;;;;;;33.35;15.48;;;0.70;87.40;;;;;;6228491;23;20031;-84
2021/01/05 12:56:46;;;;;;;41.00;17.52;;;0.80;88.20;;;;;;6255737;22;20004;-83
2021/01/05 12:59:18;;;;;;;46.78;18.13;;;0.80;87.60;;;;;;6255418;23;20004;-84
2021/01/05 13:01:44;;;;;;;44.92;19.08;;;0.80;87.80;;;;;;6229459;23;20019;-84
2021/01/05 13:04:11;;;;;;;39.85;17.23;;;0.80;87.80;;;;;;6227218;23;20008;-81
2021/01/05 13:06:36;;;;;;;38.00;18.50;;;0.80;87.80;;;;;;6228133;23;20000;-81